createdAt,value
2017-08-03T00:02:19.161Z,10.23
2017-08-03T00:04:46.005Z,10.00
2017-08-03T00:07:12.899Z,9.90
2017-08-03T00:09:40.034Z,9.50
2017-08-03T00:12:07.023Z,9.77
2017-08-03T00:14:33.905Z,9.10
2017-08-03T00:17:02.096Z,10.43
2017-08-03T00:19:28.942Z,9.10
2017-08-03T00:21:55.833Z,8.80
2017-08-03T00:24:22.659Z,10.07
2017-08-03T00:26:49.490Z,9.10
2017-08-03T00:29:16.378Z,9.30
2017-08-03T00:31:43.251Z,9.03
2017-08-03T00:34:10.133Z,9.40
2017-08-03T00:36:37.102Z,9.00
2017-08-03T00:39:03.935Z,9.00
2017-08-03T00:41:30.765Z,8.53
2017-08-03T00:43:57.689Z,9.20
2017-08-03T00:46:24.512Z,9.43
2017-08-03T00:48:51.350Z,9.47
2017-08-03T00:51:18.250Z,9.00
2017-08-03T00:53:45.144Z,9.33
2017-08-03T00:56:11.983Z,9.00
2017-08-03T00:58:38.887Z,9.40
2017-08-03T01:01:05.704Z,8.70
2017-08-03T01:03:32.533Z,8.80
2017-08-03T01:05:59.450Z,8.73
2017-08-03T01:08:26.335Z,8.90
2017-08-03T01:10:53.157Z,9.40
2017-08-03T01:13:20.558Z,9.50
2017-08-03T01:15:47.432Z,8.70
2017-08-03T01:18:14.336Z,9.47
2017-08-03T01:20:41.224Z,9.80
2017-08-03T01:23:08.092Z,9.80
2017-08-03T01:25:35.976Z,8.93
2017-08-03T01:28:02.860Z,9.10
2017-08-03T01:30:29.683Z,9.10
2017-08-03T01:32:57.086Z,9.63
2017-08-03T01:35:24.318Z,9.37
2017-08-03T01:37:51.199Z,8.90
2017-08-03T01:40:18.072Z,8.80
2017-08-03T01:42:46.544Z,9.53
2017-08-03T01:45:14.136Z,9.10
2017-08-03T01:47:41.014Z,8.80
2017-08-03T01:50:07.936Z,9.30
2017-08-03T01:52:35.488Z,8.97
2017-08-03T01:55:03.196Z,9.27
2017-08-03T01:57:30.116Z,9.00
2017-08-03T01:59:56.949Z,9.13
2017-08-03T02:02:23.795Z,8.23
2017-08-03T02:04:51.354Z,8.50
2017-08-03T02:07:18.212Z,8.30
2017-08-03T02:09:45.055Z,8.97
2017-08-03T02:12:11.947Z,9.23
2017-08-03T02:14:38.829Z,7.53
2017-08-03T02:17:05.676Z,9.10
2017-08-03T02:19:32.534Z,9.00
2017-08-03T02:21:59.382Z,8.10
2017-08-03T02:24:26.227Z,8.60
2017-08-03T02:26:53.092Z,8.10
2017-08-03T02:29:19.911Z,8.63
2017-08-03T02:31:47.654Z,8.30
2017-08-03T02:34:14.533Z,8.90
2017-08-03T02:36:41.420Z,8.60
2017-08-03T02:39:08.967Z,9.73
2017-08-03T02:41:35.876Z,8.97
2017-08-03T02:44:03.610Z,8.20
2017-08-03T02:46:30.493Z,8.17
2017-08-03T02:48:57.425Z,8.30
2017-08-03T02:51:24.440Z,8.30
2017-08-03T02:53:51.267Z,8.50
2017-08-03T02:56:18.127Z,8.90
2017-08-03T02:58:45.000Z,9.40
2017-08-03T03:01:11.880Z,9.20
2017-08-03T03:03:38.759Z,8.40
2017-08-03T03:06:05.611Z,8.63
2017-08-03T03:08:32.432Z,9.27
2017-08-03T03:10:59.312Z,8.47
2017-08-03T03:13:26.172Z,9.20
2017-08-03T03:15:53.762Z,9.03
2017-08-03T03:18:21.288Z,9.30
2017-08-03T03:20:48.200Z,8.53
2017-08-03T03:23:15.021Z,8.57
2017-08-03T03:25:41.875Z,8.23
2017-08-03T03:28:08.687Z,8.80
2017-08-03T03:30:37.073Z,8.90
2017-08-03T03:33:04.056Z,7.27
2017-08-03T03:35:31.731Z,8.17
2017-08-03T03:37:59.336Z,8.53
2017-08-03T03:40:26.228Z,8.80
2017-08-03T03:42:53.920Z,8.80
2017-08-03T03:45:20.749Z,8.90
2017-08-03T03:47:48.399Z,9.30
2017-08-03T03:50:15.240Z,8.77
2017-08-03T03:52:42.131Z,8.70
2017-08-03T03:55:09.028Z,8.50
2017-08-03T03:57:35.922Z,8.20
2017-08-03T04:00:02.772Z,8.33
2017-08-03T04:02:30.573Z,7.63
2017-08-03T04:04:57.529Z,8.10
2017-08-03T04:07:24.405Z,8.27
2017-08-03T04:09:51.254Z,7.90
2017-08-03T04:12:18.062Z,8.60
2017-08-03T04:14:44.909Z,8.03
2017-08-03T04:17:11.784Z,8.43
2017-08-03T04:19:38.625Z,8.50
2017-08-03T04:22:05.473Z,9.20
2017-08-03T04:24:32.712Z,8.37
2017-08-03T04:26:59.537Z,7.70
2017-08-03T04:29:26.426Z,8.80
2017-08-03T04:31:53.275Z,7.60
2017-08-03T04:34:20.118Z,8.37
2017-08-03T04:36:46.931Z,8.90
2017-08-03T04:39:13.844Z,9.00
2017-08-03T04:41:40.663Z,8.90
2017-08-03T04:44:07.501Z,9.53
2017-08-03T04:46:34.363Z,10.23
2017-08-03T04:49:01.194Z,9.00
2017-08-03T04:51:28.085Z,9.77
2017-08-03T04:53:54.979Z,11.47
2017-08-03T04:56:21.801Z,10.80
2017-08-03T04:58:49.232Z,10.50
2017-08-03T05:01:16.148Z,10.87
2017-08-03T05:03:43.066Z,10.50
2017-08-03T05:06:10.010Z,10.07
2017-08-03T05:08:36.864Z,9.63
2017-08-03T05:11:03.713Z,10.10
2017-08-03T05:13:30.526Z,9.30
2017-08-03T05:15:57.451Z,10.77
2017-08-03T05:18:24.344Z,10.60
2017-08-03T05:20:52.016Z,10.17
2017-08-03T05:23:18.882Z,9.60
2017-08-03T05:25:45.718Z,10.30
2017-08-03T05:28:12.542Z,9.60
2017-08-03T05:30:39.472Z,9.70
2017-08-03T05:33:07.594Z,10.80
2017-08-03T05:35:34.476Z,11.50
2017-08-03T05:38:01.345Z,10.00
2017-08-03T05:40:28.184Z,9.63
2017-08-03T05:42:55.027Z,9.03
2017-08-03T05:45:21.888Z,9.33
2017-08-03T05:47:48.733Z,9.50
2017-08-03T05:50:15.931Z,9.30
2017-08-03T05:52:43.833Z,10.60
2017-08-03T05:55:10.647Z,9.53
2017-08-03T05:57:37.734Z,9.70
2017-08-03T06:00:04.611Z,10.70
2017-08-03T06:02:31.437Z,11.03
2017-08-03T06:04:58.288Z,10.50
2017-08-03T06:07:25.167Z,9.30
2017-08-03T06:09:51.995Z,9.27
2017-08-03T06:12:18.849Z,10.30
2017-08-03T06:14:45.710Z,10.40
2017-08-03T06:17:12.593Z,9.60
2017-08-03T06:19:39.457Z,9.73
2017-08-03T06:22:06.346Z,9.97
2017-08-03T06:24:33.194Z,10.00
2017-08-03T06:27:00.064Z,9.60
2017-08-03T06:29:27.766Z,9.90
2017-08-03T06:31:55.079Z,9.30
2017-08-03T06:34:21.917Z,9.17
2017-08-03T06:36:48.832Z,9.40
2017-08-03T06:39:15.662Z,9.00
2017-08-03T06:41:42.592Z,9.20
2017-08-03T06:44:10.118Z,8.97
2017-08-03T06:46:36.958Z,9.50
2017-08-03T06:49:03.789Z,10.07
2017-08-03T06:51:30.716Z,9.80
2017-08-03T06:53:57.692Z,9.57
2017-08-03T06:56:24.559Z,9.30
2017-08-03T06:58:51.496Z,8.70
2017-08-03T07:01:18.455Z,9.00
2017-08-03T07:03:45.302Z,9.07
2017-08-03T07:06:12.172Z,9.17
2017-08-03T07:08:39.020Z,9.33
2017-08-03T07:11:05.842Z,9.67
2017-08-03T07:13:32.762Z,10.30
2017-08-03T07:15:59.572Z,9.30
2017-08-03T07:18:26.406Z,9.90
2017-08-03T07:20:53.329Z,8.87
2017-08-03T07:23:20.468Z,9.20
2017-08-03T07:25:47.285Z,8.70
2017-08-03T07:28:14.215Z,8.60
2017-08-03T07:30:41.115Z,9.67
2017-08-03T07:33:07.948Z,9.03
2017-08-03T07:35:34.872Z,8.43
2017-08-03T07:38:01.709Z,9.03
2017-08-03T07:40:28.556Z,8.47
2017-08-03T07:42:55.437Z,8.27
2017-08-03T07:45:22.265Z,8.10
2017-08-03T07:47:49.072Z,8.07
2017-08-03T07:50:16.009Z,8.50
2017-08-03T07:52:42.958Z,8.80
2017-08-03T07:55:09.855Z,8.53
2017-08-03T07:57:36.712Z,9.00
2017-08-03T08:00:03.559Z,9.13
2017-08-03T08:02:30.437Z,8.50
2017-08-03T08:04:57.365Z,8.40
2017-08-03T08:07:24.241Z,9.50
2017-08-03T08:09:51.055Z,8.30
2017-08-03T08:12:17.926Z,7.97
2017-08-03T08:14:44.845Z,8.03
2017-08-03T08:17:11.724Z,7.93
2017-08-03T08:19:38.606Z,8.63
2017-08-03T08:22:05.423Z,7.40
2017-08-03T08:24:32.247Z,8.30
2017-08-03T08:26:59.807Z,7.80
2017-08-03T08:29:26.638Z,7.53
2017-08-03T08:31:53.515Z,7.70
2017-08-03T08:34:20.394Z,8.40
2017-08-03T08:36:47.280Z,8.23
2017-08-03T08:39:14.113Z,7.93
2017-08-03T08:41:41.045Z,7.90
2017-08-03T08:44:07.922Z,8.33
2017-08-03T08:46:34.771Z,8.27
2017-08-03T08:49:01.631Z,8.57
2017-08-03T08:51:28.490Z,8.10
2017-08-03T08:53:55.351Z,8.60
2017-08-03T08:56:22.214Z,8.77
2017-08-03T08:58:49.518Z,8.57
2017-08-03T09:01:16.331Z,8.03
2017-08-03T09:03:43.191Z,7.70
2017-08-03T09:06:10.064Z,8.27
2017-08-03T09:08:37.008Z,8.03
2017-08-03T09:11:03.909Z,7.67
2017-08-03T09:13:30.738Z,7.97
2017-08-03T09:15:57.578Z,8.10
2017-08-03T09:18:24.459Z,7.60
2017-08-03T09:20:51.334Z,7.43
2017-08-03T09:23:18.163Z,7.87
2017-08-03T09:25:45.059Z,7.00
2017-08-03T09:28:12.056Z,6.10
2017-08-03T09:30:38.903Z,6.90
2017-08-03T09:33:05.782Z,6.63
2017-08-03T09:35:32.620Z,6.23
2017-08-03T09:37:59.455Z,6.63
2017-08-03T09:40:26.348Z,7.00
2017-08-03T09:42:53.248Z,7.30
2017-08-03T09:45:20.078Z,6.77
2017-08-03T09:47:46.931Z,6.40
2017-08-03T09:50:13.770Z,6.73
2017-08-03T09:52:40.659Z,7.40
2017-08-03T09:55:07.550Z,7.77
2017-08-03T09:57:34.401Z,5.83
2017-08-03T10:00:01.240Z,5.80
2017-08-03T10:02:28.107Z,5.30
2017-08-03T10:04:54.938Z,5.07
2017-08-03T10:07:21.836Z,4.20
2017-08-03T10:09:48.726Z,4.37
2017-08-03T10:12:15.864Z,5.13
2017-08-03T10:14:42.702Z,5.53
2017-08-03T10:17:09.959Z,5.27
2017-08-03T10:19:36.828Z,4.90
2017-08-03T10:22:03.654Z,4.47
2017-08-03T10:24:30.543Z,4.20
2017-08-03T10:26:57.361Z,4.80
2017-08-03T10:29:24.244Z,4.60
2017-08-03T10:31:51.136Z,4.30
2017-08-03T10:34:17.968Z,3.83
2017-08-03T10:36:44.782Z,4.20
2017-08-03T10:39:11.692Z,3.67
2017-08-03T10:41:38.548Z,3.30
2017-08-03T10:44:05.357Z,3.10
2017-08-03T10:46:32.286Z,3.50
2017-08-03T10:48:59.270Z,3.30
2017-08-03T10:51:26.139Z,3.40
2017-08-03T10:53:53.048Z,3.03
2017-08-03T10:56:20.242Z,3.37
2017-08-03T10:58:47.195Z,3.17
2017-08-03T11:01:14.098Z,3.77
2017-08-03T11:03:40.911Z,3.40
2017-08-03T11:06:07.718Z,3.23
2017-08-03T11:08:34.649Z,3.10
2017-08-03T11:11:01.521Z,3.50
2017-08-03T11:13:28.353Z,3.20
2017-08-03T11:15:55.207Z,3.30
2017-08-03T11:18:22.087Z,3.30
2017-08-03T11:20:48.925Z,2.70
2017-08-03T11:23:15.793Z,2.70
2017-08-03T11:25:42.696Z,2.83
2017-08-03T11:28:09.534Z,2.70
2017-08-03T11:30:36.403Z,2.80
2017-08-03T11:33:03.262Z,3.00
2017-08-03T11:35:30.095Z,3.00
2017-08-03T11:37:56.947Z,2.80
2017-08-03T11:40:23.779Z,2.40
2017-08-03T11:42:50.666Z,2.10
2017-08-03T11:45:17.580Z,1.90
2017-08-03T11:47:44.463Z,2.03
2017-08-03T11:50:11.267Z,2.20
2017-08-03T11:52:38.155Z,2.40
2017-08-03T11:55:04.966Z,2.00
2017-08-03T11:57:31.834Z,1.90
2017-08-03T11:59:58.714Z,1.70
2017-08-03T12:02:25.550Z,1.77
2017-08-03T12:04:52.383Z,2.00
2017-08-03T12:07:19.258Z,1.80
2017-08-03T12:09:46.067Z,1.87
2017-08-03T12:12:13.689Z,2.00
2017-08-03T12:14:40.801Z,1.60
2017-08-03T12:17:07.619Z,1.70
2017-08-03T12:19:40.607Z,1.80
2017-08-03T12:22:07.439Z,2.50
2017-08-03T12:24:34.250Z,2.17
2017-08-03T12:27:01.180Z,2.07
2017-08-03T12:29:28.059Z,1.97
2017-08-03T12:31:54.936Z,2.20
2017-08-03T12:34:21.802Z,2.30
2017-08-03T12:36:48.614Z,2.03
2017-08-03T12:39:15.472Z,2.13
2017-08-03T12:41:42.380Z,2.10
2017-08-03T12:44:09.220Z,2.33
2017-08-03T12:46:36.032Z,2.90
2017-08-03T12:49:02.891Z,2.70
2017-08-03T12:51:29.773Z,2.63
2017-08-03T12:53:56.588Z,3.00
2017-08-03T12:56:23.461Z,2.63
2017-08-03T12:58:50.515Z,2.90
2017-08-03T13:01:17.333Z,3.20
2017-08-03T13:03:44.202Z,2.57
2017-08-03T13:06:11.065Z,2.83
2017-08-03T13:08:37.893Z,3.23
2017-08-03T13:11:04.747Z,3.13
2017-08-03T13:13:31.659Z,3.00
2017-08-03T13:15:58.540Z,3.00
2017-08-03T13:18:25.431Z,3.40
2017-08-03T13:20:52.268Z,3.07
2017-08-03T13:23:19.078Z,3.10
2017-08-03T13:25:45.936Z,3.33
2017-08-03T13:28:12.773Z,3.70
2017-08-03T13:30:39.605Z,3.60
2017-08-03T13:33:06.466Z,3.20
2017-08-03T13:35:33.289Z,3.40
2017-08-03T13:38:00.102Z,3.73
2017-08-03T13:40:26.988Z,3.90
2017-08-03T13:42:54.751Z,3.53
2017-08-03T13:45:21.589Z,3.70
2017-08-03T13:47:48.455Z,3.77
2017-08-03T13:50:15.274Z,3.20
2017-08-03T13:52:42.099Z,3.97
2017-08-03T13:55:08.943Z,3.70
2017-08-03T13:57:35.755Z,3.70
2017-08-03T14:00:02.575Z,3.63
2017-08-03T14:02:29.950Z,4.10
2017-08-03T14:04:56.792Z,3.57
2017-08-03T14:07:23.595Z,3.97
2017-08-03T14:09:50.435Z,3.33
2017-08-03T14:12:17.252Z,3.90
2017-08-03T14:14:44.102Z,3.40
2017-08-03T14:17:10.979Z,3.30
2017-08-03T14:19:37.833Z,3.13
2017-08-03T14:22:04.677Z,3.53
2017-08-03T14:24:31.540Z,3.50
2017-08-03T14:26:59.084Z,3.60
2017-08-03T14:29:25.915Z,3.70
2017-08-03T14:31:52.844Z,3.97
2017-08-03T14:34:19.673Z,3.60
2017-08-03T14:36:46.509Z,3.43
2017-08-03T14:39:13.428Z,2.90
2017-08-03T14:41:40.250Z,3.40
2017-08-03T14:44:08.003Z,3.83
2017-08-03T14:46:34.923Z,3.77
2017-08-03T14:49:01.761Z,3.83
2017-08-03T14:51:28.618Z,3.73
2017-08-03T14:53:55.464Z,3.07
2017-08-03T14:56:22.341Z,3.27
2017-08-03T14:58:49.159Z,3.10
2017-08-03T15:01:16.090Z,2.80
2017-08-03T15:03:42.949Z,2.70
2017-08-03T15:06:09.787Z,2.73
2017-08-03T15:08:36.661Z,2.53
2017-08-03T15:11:03.520Z,2.73
2017-08-03T15:13:30.353Z,2.30
2017-08-03T15:15:57.209Z,2.77
2017-08-03T15:18:24.039Z,2.17
2017-08-03T15:20:50.884Z,2.10
2017-08-03T15:23:17.753Z,2.17
2017-08-03T15:25:44.555Z,2.00
2017-08-03T15:28:11.383Z,2.20
2017-08-03T15:30:38.405Z,2.30
2017-08-03T15:33:05.349Z,2.50
2017-08-03T15:35:32.240Z,3.40
2017-08-03T15:37:59.152Z,2.80
2017-08-03T15:40:26.033Z,3.20
2017-08-03T15:42:52.887Z,3.43
2017-08-03T15:45:19.739Z,3.30
2017-08-03T15:47:46.596Z,4.07
2017-08-03T15:50:13.560Z,3.80
2017-08-03T15:52:40.517Z,3.73
2017-08-03T15:55:07.528Z,3.30
2017-08-03T15:57:34.490Z,3.70
2017-08-03T16:00:01.404Z,3.63
2017-08-03T16:02:28.252Z,3.57
2017-08-03T16:04:55.158Z,3.73
2017-08-03T16:07:22.027Z,3.97
2017-08-03T16:09:48.884Z,4.03
2017-08-03T16:12:15.851Z,4.10
2017-08-03T16:14:43.635Z,4.40
2017-08-03T16:17:10.490Z,4.60
2017-08-03T16:19:37.344Z,4.77
2017-08-03T16:22:04.361Z,4.77
2017-08-03T16:24:31.213Z,4.10
2017-08-03T16:26:58.085Z,4.67
2017-08-03T16:29:24.966Z,4.67
2017-08-03T16:31:51.831Z,4.30
2017-08-03T16:34:18.770Z,4.53
2017-08-03T16:36:45.708Z,5.20
2017-08-03T16:39:12.542Z,5.50
2017-08-03T16:41:39.415Z,4.90
2017-08-03T16:44:06.337Z,5.57
2017-08-03T16:46:33.169Z,6.07
2017-08-03T16:49:00.007Z,6.03
2017-08-03T16:51:26.952Z,5.43
2017-08-03T16:53:53.844Z,6.07
2017-08-03T16:56:20.821Z,6.50
2017-08-03T16:58:47.695Z,5.73
2017-08-03T17:01:14.567Z,6.43
2017-08-03T17:03:41.399Z,6.13
2017-08-03T17:06:08.265Z,6.97
2017-08-03T17:08:35.091Z,6.70
2017-08-03T17:11:01.953Z,6.93
2017-08-03T17:13:28.803Z,6.30
2017-08-03T17:15:55.611Z,7.10
2017-08-03T17:18:22.455Z,6.80
2017-08-03T17:20:49.349Z,7.57
2017-08-03T17:23:16.260Z,6.33
2017-08-03T17:25:43.148Z,7.00
2017-08-03T17:28:10.028Z,7.60
2017-08-03T17:30:36.953Z,6.60
2017-08-03T17:33:03.779Z,6.53
2017-08-03T17:35:30.661Z,6.00
2017-08-03T17:37:57.503Z,6.60
2017-08-03T17:40:24.404Z,6.13
2017-08-03T17:42:51.320Z,6.70
2017-08-03T17:45:18.204Z,6.30
2017-08-03T17:47:45.017Z,6.90
2017-08-03T17:50:11.965Z,6.47
2017-08-03T17:52:40.123Z,6.35
2017-08-03T17:55:07.061Z,6.60
2017-08-03T17:57:34.052Z,6.17
2017-08-03T18:00:01.372Z,6.83
2017-08-03T18:02:28.295Z,6.43
2017-08-03T18:04:55.208Z,6.47
2017-08-03T18:07:22.092Z,6.70
2017-08-03T18:09:48.926Z,6.77
2017-08-03T18:12:15.801Z,6.83
2017-08-03T18:14:42.647Z,6.47
2017-08-03T18:17:09.459Z,6.50
2017-08-03T18:19:36.611Z,6.83
2017-08-03T18:22:03.432Z,7.00
2017-08-03T18:24:30.313Z,6.90
2017-08-03T18:26:57.171Z,7.10
2017-08-03T18:29:24.006Z,6.13
2017-08-03T18:31:50.858Z,6.60
2017-08-03T18:34:17.731Z,7.70
2017-08-03T18:36:44.627Z,6.70
2017-08-03T18:39:11.499Z,6.10
2017-08-03T18:41:38.358Z,5.57
2017-08-03T18:44:05.208Z,5.27
2017-08-03T18:46:32.091Z,5.40
2017-08-03T18:48:59.046Z,5.03
2017-08-03T18:51:25.960Z,5.63
2017-08-03T18:53:52.852Z,5.43
2017-08-03T18:56:19.755Z,5.63
2017-08-03T18:58:46.585Z,5.80
2017-08-03T19:01:13.431Z,5.50
2017-08-03T19:03:40.345Z,5.23
2017-08-03T19:06:07.171Z,5.30
2017-08-03T19:08:34.028Z,5.30
2017-08-03T19:11:00.900Z,5.70
2017-08-03T19:13:27.780Z,5.93
2017-08-03T19:15:54.664Z,5.70
2017-08-03T19:18:21.555Z,5.80
2017-08-03T19:20:48.436Z,6.37
2017-08-03T19:23:15.863Z,6.13
2017-08-03T19:25:42.823Z,6.30
2017-08-03T19:28:09.760Z,6.43
2017-08-03T19:30:37.560Z,6.27
2017-08-03T19:33:04.447Z,5.77
2017-08-03T19:35:31.360Z,6.20
2017-08-03T19:37:58.342Z,5.97
2017-08-03T19:40:25.231Z,6.10
2017-08-03T19:42:52.176Z,6.10
2017-08-03T19:45:19.033Z,6.13
2017-08-03T19:47:45.957Z,6.53
2017-08-03T19:50:13.906Z,6.30
2017-08-03T19:52:40.749Z,6.30
2017-08-03T19:55:07.659Z,5.77
2017-08-03T19:57:34.485Z,5.77
2017-08-03T20:00:01.420Z,5.50
2017-08-03T20:02:28.307Z,5.40
2017-08-03T20:04:55.316Z,6.20
2017-08-03T20:07:28.200Z,5.67
2017-08-03T20:09:59.903Z,5.47
2017-08-03T20:12:26.731Z,6.40
2017-08-03T20:14:53.615Z,5.70
2017-08-03T20:17:20.451Z,5.40
2017-08-03T20:19:47.309Z,5.83
2017-08-03T20:22:14.155Z,5.30
2017-08-03T20:24:41.055Z,5.93
2017-08-03T20:27:07.897Z,6.10
2017-08-03T20:29:34.759Z,5.60
2017-08-03T20:32:01.636Z,5.63
2017-08-03T20:34:28.450Z,5.80
2017-08-03T20:36:55.342Z,5.30
2017-08-03T20:39:22.182Z,5.57
2017-08-03T20:41:49.059Z,5.80
2017-08-03T20:44:15.998Z,5.17
2017-08-03T20:46:42.840Z,5.67
2017-08-03T20:49:09.679Z,5.40
2017-08-03T20:51:36.557Z,5.60
2017-08-03T20:54:03.364Z,6.43
2017-08-03T20:56:30.245Z,6.57
2017-08-03T20:58:57.103Z,6.20
2017-08-03T21:01:23.920Z,6.20
2017-08-03T21:03:50.763Z,7.00
2017-08-03T21:06:17.679Z,7.00
2017-08-03T21:08:44.498Z,7.10
2017-08-03T21:11:11.372Z,8.10
2017-08-03T21:13:38.245Z,8.33
2017-08-03T21:16:05.071Z,6.80
2017-08-03T21:18:31.961Z,7.90
2017-08-03T21:20:58.825Z,7.10
2017-08-03T21:23:25.676Z,7.20
2017-08-03T21:25:52.520Z,7.00
2017-08-03T21:28:19.381Z,6.77
2017-08-03T21:30:46.257Z,7.37
2017-08-03T21:33:13.146Z,7.03
2017-08-03T21:35:40.093Z,6.30
2017-08-03T21:38:06.909Z,6.63
2017-08-03T21:40:33.788Z,6.67
2017-08-03T21:43:00.715Z,6.17
2017-08-03T21:45:27.592Z,6.40
2017-08-03T21:47:54.407Z,6.60
2017-08-03T21:50:21.279Z,7.30
2017-08-03T21:52:48.095Z,7.87
2017-08-03T21:55:14.931Z,7.50
2017-08-03T21:57:41.815Z,7.97
2017-08-03T22:00:08.700Z,7.93
2017-08-03T22:02:35.538Z,7.57
2017-08-03T22:05:02.678Z,8.07
2017-08-03T22:07:29.524Z,7.20
2017-08-03T22:09:56.357Z,7.80
2017-08-03T22:12:23.229Z,7.50
2017-08-03T22:14:50.108Z,7.50
2017-08-03T22:17:16.942Z,7.70
2017-08-03T22:19:43.848Z,8.10
2017-08-03T22:22:10.689Z,7.90
2017-08-03T22:24:37.531Z,7.77
2017-08-03T22:27:04.444Z,7.60
2017-08-03T22:29:31.258Z,7.63
2017-08-03T22:31:58.099Z,7.90
2017-08-03T22:34:25.005Z,7.90
2017-08-03T22:36:51.866Z,7.90
2017-08-03T22:39:18.701Z,7.80
2017-08-03T22:41:46.532Z,7.83
2017-08-03T22:44:13.366Z,7.63
2017-08-03T22:46:40.184Z,7.50
2017-08-03T22:49:07.173Z,7.47
2017-08-03T22:51:34.052Z,7.87
2017-08-03T22:54:01.961Z,8.00
2017-08-03T22:56:28.821Z,7.10
2017-08-03T22:58:55.650Z,7.47
2017-08-03T23:01:22.485Z,7.83
2017-08-03T23:03:49.345Z,7.53
2017-08-03T23:06:16.396Z,7.60
2017-08-03T23:08:43.274Z,7.60
2017-08-03T23:11:10.197Z,7.83
2017-08-03T23:13:37.006Z,7.57
2017-08-03T23:16:03.818Z,7.23
2017-08-03T23:18:30.719Z,7.37
2017-08-03T23:20:57.549Z,7.27
2017-08-03T23:23:24.387Z,7.30
2017-08-03T23:25:51.247Z,6.50
2017-08-03T23:28:18.060Z,7.13
2017-08-03T23:30:44.937Z,7.63
2017-08-03T23:33:11.822Z,7.53
2017-08-03T23:35:38.701Z,8.17
2017-08-03T23:38:06.476Z,7.63
2017-08-03T23:40:33.400Z,7.30
2017-08-03T23:43:00.222Z,7.40
2017-08-03T23:45:27.100Z,7.37
2017-08-03T23:47:53.947Z,7.20
2017-08-03T23:50:20.829Z,6.90
2017-08-03T23:52:48.488Z,7.30
2017-08-03T23:55:15.407Z,7.30
2017-08-03T23:57:42.292Z,7.60
